sensor_id;sensor_type;location;lat;lon;timestamp;P1;durP1;ratioP1;P2;durP2;ratioP2
60714;SDS011;46564;53.096;8.246;2022-08-03T00:03:40;4.78;;;2.13;;
60714;SDS011;46564;53.096;8.246;2022-08-03T00:08:42;7.13;;;2.50;;
60714;SDS011;46564;53.096;8.246;2022-08-03T00:13:43;3.38;;;1.75;;
60714;SDS011;46564;53.096;8.246;2022-08-03T00:18:45;6.95;;;2.40;;
60714;SDS011;46564;53.096;8.246;2022-08-03T00:23:47;5.30;;;2.50;;
60714;SDS011;46564;53.096;8.246;2022-08-03T00:28:53;4.30;;;2.53;;
60714;SDS011;46564;53.096;8.246;2022-08-03T00:33:54;7.43;;;2.25;;
60714;SDS011;46564;53.096;8.246;2022-08-03T00:39:03;9.52;;;2.22;;
60714;SDS011;46564;53.096;8.246;2022-08-03T00:44:05;5.05;;;2.20;;
60714;SDS011;46564;53.096;8.246;2022-08-03T00:49:06;5.90;;;2.22;;
60714;SDS011;46564;53.096;8.246;2022-08-03T00:54:08;9.80;;;2.50;;
60714;SDS011;46564;53.096;8.246;2022-08-03T00:59:10;4.70;;;1.98;;
60714;SDS011;46564;53.096;8.246;2022-08-03T01:04:14;3.90;;;2.05;;
60714;SDS011;46564;53.096;8.246;2022-08-03T01:09:29;12.05;;;2.30;;
60714;SDS011;46564;53.096;8.246;2022-08-03T01:14:48;4.72;;;2.28;;
60714;SDS011;46564;53.096;8.246;2022-08-03T01:20:03;4.93;;;2.30;;
60714;SDS011;46564;53.096;8.246;2022-08-03T01:30:41;4.53;;;2.25;;
60714;SDS011;46564;53.096;8.246;2022-08-03T01:35:59;4.65;;;2.28;;
60714;SDS011;46564;53.096;8.246;2022-08-03T01:41:11;8.77;;;2.30;;
60714;SDS011;46564;53.096;8.246;2022-08-03T01:46:19;4.32;;;2.20;;
60714;SDS011;46564;53.096;8.246;2022-08-03T01:51:22;7.80;;;2.70;;
60714;SDS011;46564;53.096;8.246;2022-08-03T01:57:06;8.75;;;2.60;;
60714;SDS011;46564;53.096;8.246;2022-08-03T02:02:12;5.28;;;2.20;;
60714;SDS011;46564;53.096;8.246;2022-08-03T02:07:34;6.63;;;2.78;;
60714;SDS011;46564;53.096;8.246;2022-08-03T02:12:37;6.43;;;2.75;;
60714;SDS011;46564;53.096;8.246;2022-08-03T02:17:40;6.88;;;2.85;;
60714;SDS011;46564;53.096;8.246;2022-08-03T02:22:44;6.60;;;3.15;;
60714;SDS011;46564;53.096;8.246;2022-08-03T02:27:57;5.07;;;2.38;;
60714;SDS011;46564;53.096;8.246;2022-08-03T02:33:12;5.43;;;2.75;;
60714;SDS011;46564;53.096;8.246;2022-08-03T02:38:19;5.70;;;2.88;;
60714;SDS011;46564;53.096;8.246;2022-08-03T02:43:23;9.55;;;3.15;;
60714;SDS011;46564;53.096;8.246;2022-08-03T02:48:27;5.30;;;2.60;;
60714;SDS011;46564;53.096;8.246;2022-08-03T02:53:31;7.10;;;2.70;;
60714;SDS011;46564;53.096;8.246;2022-08-03T02:58:35;7.05;;;3.00;;
60714;SDS011;46564;53.096;8.246;2022-08-03T03:03:39;6.70;;;2.85;;
60714;SDS011;46564;53.096;8.246;2022-08-03T03:08:45;4.65;;;2.88;;
60714;SDS011;46564;53.096;8.246;2022-08-03T03:13:48;5.75;;;2.97;;
60714;SDS011;46564;53.096;8.246;2022-08-03T03:18:51;5.85;;;3.10;;
60714;SDS011;46564;53.096;8.246;2022-08-03T03:23:54;5.97;;;3.17;;
60714;SDS011;46564;53.096;8.246;2022-08-03T03:28:57;5.88;;;2.80;;
60714;SDS011;46564;53.096;8.246;2022-08-03T03:33:59;8.93;;;4.07;;
60714;SDS011;46564;53.096;8.246;2022-08-03T03:39:01;6.07;;;3.00;;
60714;SDS011;46564;53.096;8.246;2022-08-03T03:44:16;6.15;;;3.33;;
60714;SDS011;46564;53.096;8.246;2022-08-03T03:49:18;6.45;;;3.55;;
60714;SDS011;46564;53.096;8.246;2022-08-03T03:54:20;7.47;;;3.08;;
60714;SDS011;46564;53.096;8.246;2022-08-03T03:59:29;11.60;;;3.80;;
60714;SDS011;46564;53.096;8.246;2022-08-03T04:04:36;9.15;;;4.07;;
60714;SDS011;46564;53.096;8.246;2022-08-03T04:09:57;5.80;;;3.65;;
60714;SDS011;46564;53.096;8.246;2022-08-03T04:15:18;11.52;;;4.10;;
60714;SDS011;46564;53.096;8.246;2022-08-03T04:20:25;8.40;;;4.00;;
60714;SDS011;46564;53.096;8.246;2022-08-03T04:25:32;11.02;;;4.72;;
60714;SDS011;46564;53.096;8.246;2022-08-03T04:30:37;9.23;;;4.53;;
60714;SDS011;46564;53.096;8.246;2022-08-03T04:35:41;10.52;;;4.85;;
60714;SDS011;46564;53.096;8.246;2022-08-03T04:41:02;11.52;;;5.97;;
60714;SDS011;46564;53.096;8.246;2022-08-03T04:46:05;13.30;;;5.53;;
60714;SDS011;46564;53.096;8.246;2022-08-03T04:51:08;11.10;;;6.15;;
60714;SDS011;46564;53.096;8.246;2022-08-03T04:56:11;10.57;;;6.00;;
60714;SDS011;46564;53.096;8.246;2022-08-03T05:01:13;11.93;;;5.97;;
60714;SDS011;46564;53.096;8.246;2022-08-03T05:06:16;10.55;;;5.57;;
60714;SDS011;46564;53.096;8.246;2022-08-03T05:11:18;10.63;;;5.30;;
60714;SDS011;46564;53.096;8.246;2022-08-03T05:16:19;20.30;;;5.97;;
60714;SDS011;46564;53.096;8.246;2022-08-03T05:21:21;9.60;;;5.55;;
60714;SDS011;46564;53.096;8.246;2022-08-03T05:26:23;19.35;;;6.10;;
60714;SDS011;46564;53.096;8.246;2022-08-03T05:31:26;10.85;;;4.90;;
60714;SDS011;46564;53.096;8.246;2022-08-03T05:36:29;11.77;;;5.88;;
60714;SDS011;46564;53.096;8.246;2022-08-03T05:41:30;9.80;;;5.13;;
60714;SDS011;46564;53.096;8.246;2022-08-03T05:46:37;10.02;;;5.03;;
60714;SDS011;46564;53.096;8.246;2022-08-03T05:51:39;16.50;;;5.28;;
60714;SDS011;46564;53.096;8.246;2022-08-03T05:56:41;16.08;;;4.95;;
60714;SDS011;46564;53.096;8.246;2022-08-03T06:01:44;10.38;;;5.20;;
60714;SDS011;46564;53.096;8.246;2022-08-03T06:06:47;14.38;;;5.20;;
60714;SDS011;46564;53.096;8.246;2022-08-03T06:11:51;12.23;;;4.72;;
60714;SDS011;46564;53.096;8.246;2022-08-03T06:16:53;13.63;;;5.25;;
60714;SDS011;46564;53.096;8.246;2022-08-03T06:21:54;14.68;;;5.45;;
60714;SDS011;46564;53.096;8.246;2022-08-03T06:26:56;14.90;;;4.60;;
60714;SDS011;46564;53.096;8.246;2022-08-03T06:31:58;10.27;;;4.15;;
60714;SDS011;46564;53.096;8.246;2022-08-03T06:36:59;10.93;;;4.20;;
60714;SDS011;46564;53.096;8.246;2022-08-03T06:42:02;11.68;;;4.00;;
60714;SDS011;46564;53.096;8.246;2022-08-03T06:47:06;8.20;;;3.65;;
60714;SDS011;46564;53.096;8.246;2022-08-03T06:52:08;13.57;;;4.30;;
60714;SDS011;46564;53.096;8.246;2022-08-03T06:57:11;10.95;;;4.03;;
60714;SDS011;46564;53.096;8.246;2022-08-03T07:02:13;10.73;;;4.00;;
60714;SDS011;46564;53.096;8.246;2022-08-03T07:07:19;9.93;;;3.38;;
60714;SDS011;46564;53.096;8.246;2022-08-03T07:12:21;8.23;;;2.90;;
60714;SDS011;46564;53.096;8.246;2022-08-03T07:17:22;10.65;;;3.60;;
60714;SDS011;46564;53.096;8.246;2022-08-03T07:22:24;12.52;;;2.60;;
60714;SDS011;46564;53.096;8.246;2022-08-03T07:27:26;10.02;;;2.78;;
60714;SDS011;46564;53.096;8.246;2022-08-03T07:32:29;7.63;;;2.70;;
60714;SDS011;46564;53.096;8.246;2022-08-03T07:37:32;9.32;;;2.83;;
60714;SDS011;46564;53.096;8.246;2022-08-03T07:42:33;13.30;;;3.53;;
60714;SDS011;46564;53.096;8.246;2022-08-03T07:47:35;13.32;;;2.97;;
60714;SDS011;46564;53.096;8.246;2022-08-03T07:52:37;12.57;;;3.33;;
60714;SDS011;46564;53.096;8.246;2022-08-03T07:58:02;11.65;;;3.50;;
60714;SDS011;46564;53.096;8.246;2022-08-03T08:03:05;9.93;;;2.88;;
60714;SDS011;46564;53.096;8.246;2022-08-03T08:08:07;11.43;;;2.85;;
60714;SDS011;46564;53.096;8.246;2022-08-03T08:13:09;5.97;;;2.30;;
60714;SDS011;46564;53.096;8.246;2022-08-03T08:18:11;18.88;;;2.85;;
60714;SDS011;46564;53.096;8.246;2022-08-03T08:23:20;10.40;;;2.85;;
60714;SDS011;46564;53.096;8.246;2022-08-03T08:28:43;7.40;;;2.30;;
60714;SDS011;46564;53.096;8.246;2022-08-03T08:33:45;10.93;;;2.50;;
60714;SDS011;46564;53.096;8.246;2022-08-03T08:39:04;13.27;;;3.10;;
60714;SDS011;46564;53.096;8.246;2022-08-03T08:44:06;10.27;;;2.65;;
60714;SDS011;46564;53.096;8.246;2022-08-03T08:49:10;10.65;;;2.42;;
60714;SDS011;46564;53.096;8.246;2022-08-03T08:54:17;9.35;;;2.35;;
60714;SDS011;46564;53.096;8.246;2022-08-03T08:59:22;10.10;;;2.55;;
60714;SDS011;46564;53.096;8.246;2022-08-03T09:04:25;6.32;;;2.15;;
60714;SDS011;46564;53.096;8.246;2022-08-03T09:09:29;6.75;;;2.10;;
60714;SDS011;46564;53.096;8.246;2022-08-03T09:14:51;7.43;;;2.13;;
60714;SDS011;46564;53.096;8.246;2022-08-03T09:20:12;8.52;;;2.13;;
60714;SDS011;46564;53.096;8.246;2022-08-03T09:25:14;5.00;;;1.80;;
60714;SDS011;46564;53.096;8.246;2022-08-03T09:30:25;8.32;;;2.15;;
60714;SDS011;46564;53.096;8.246;2022-08-03T09:35:41;8.93;;;1.80;;
60714;SDS011;46564;53.096;8.246;2022-08-03T09:40:57;9.88;;;2.03;;
60714;SDS011;46564;53.096;8.246;2022-08-03T09:46:02;9.75;;;2.60;;
60714;SDS011;46564;53.096;8.246;2022-08-03T09:51:05;7.38;;;1.90;;
60714;SDS011;46564;53.096;8.246;2022-08-03T09:56:13;9.60;;;2.05;;
60714;SDS011;46564;53.096;8.246;2022-08-03T10:01:36;6.53;;;2.08;;
60714;SDS011;46564;53.096;8.246;2022-08-03T10:06:43;7.47;;;1.85;;
60714;SDS011;46564;53.096;8.246;2022-08-03T10:11:46;9.45;;;1.67;;
60714;SDS011;46564;53.096;8.246;2022-08-03T10:16:47;7.25;;;1.60;;
60714;SDS011;46564;53.096;8.246;2022-08-03T10:21:54;6.53;;;1.55;;
60714;SDS011;46564;53.096;8.246;2022-08-03T10:27:05;8.82;;;1.58;;
60714;SDS011;46564;53.096;8.246;2022-08-03T10:32:09;5.47;;;1.67;;
60714;SDS011;46564;53.096;8.246;2022-08-03T10:42:19;8.77;;;1.65;;
60714;SDS011;46564;53.096;8.246;2022-08-03T10:47:23;18.20;;;2.60;;
60714;SDS011;46564;53.096;8.246;2022-08-03T10:52:25;9.75;;;1.80;;
60714;SDS011;46564;53.096;8.246;2022-08-03T10:57:45;10.70;;;1.77;;
60714;SDS011;46564;53.096;8.246;2022-08-03T11:03:03;17.95;;;2.22;;
60714;SDS011;46564;53.096;8.246;2022-08-03T11:08:19;12.13;;;2.17;;
60714;SDS011;46564;53.096;8.246;2022-08-03T11:13:30;10.05;;;1.90;;
60714;SDS011;46564;53.096;8.246;2022-08-03T11:18:33;8.68;;;1.90;;
60714;SDS011;46564;53.096;8.246;2022-08-03T11:23:43;9.15;;;1.83;;
60714;SDS011;46564;53.096;8.246;2022-08-03T11:34:27;10.50;;;1.60;;
60714;SDS011;46564;53.096;8.246;2022-08-03T11:39:41;8.82;;;1.98;;
60714;SDS011;46564;53.096;8.246;2022-08-03T11:44:46;10.55;;;2.90;;
60714;SDS011;46564;53.096;8.246;2022-08-03T11:49:49;8.85;;;1.75;;
60714;SDS011;46564;53.096;8.246;2022-08-03T11:54:52;11.10;;;2.13;;
60714;SDS011;46564;53.096;8.246;2022-08-03T11:59:57;15.40;;;2.20;;
60714;SDS011;46564;53.096;8.246;2022-08-03T12:04:59;12.40;;;1.88;;
60714;SDS011;46564;53.096;8.246;2022-08-03T12:10:05;12.70;;;1.92;;
60714;SDS011;46564;53.096;8.246;2022-08-03T12:15:08;15.57;;;2.10;;
60714;SDS011;46564;53.096;8.246;2022-08-03T12:20:13;17.63;;;2.63;;
60714;SDS011;46564;53.096;8.246;2022-08-03T12:25:35;9.63;;;1.70;;
60714;SDS011;46564;53.096;8.246;2022-08-03T12:30:40;9.50;;;1.85;;
60714;SDS011;46564;53.096;8.246;2022-08-03T12:35:42;11.52;;;1.83;;
60714;SDS011;46564;53.096;8.246;2022-08-03T12:40:54;11.93;;;1.90;;
60714;SDS011;46564;53.096;8.246;2022-08-03T12:46:15;11.85;;;1.70;;
60714;SDS011;46564;53.096;8.246;2022-08-03T12:51:18;11.35;;;1.80;;
60714;SDS011;46564;53.096;8.246;2022-08-03T12:56:19;8.65;;;1.75;;
60714;SDS011;46564;53.096;8.246;2022-08-03T13:01:21;9.85;;;1.85;;
60714;SDS011;46564;53.096;8.246;2022-08-03T13:06:26;11.73;;;1.70;;
60714;SDS011;46564;53.096;8.246;2022-08-03T13:11:29;9.00;;;1.67;;
60714;SDS011;46564;53.096;8.246;2022-08-03T13:16:51;9.25;;;1.58;;
60714;SDS011;46564;53.096;8.246;2022-08-03T13:21:52;12.15;;;2.15;;
60714;SDS011;46564;53.096;8.246;2022-08-03T13:27:04;9.00;;;1.50;;
60714;SDS011;46564;53.096;8.246;2022-08-03T13:32:27;12.07;;;2.53;;
60714;SDS011;46564;53.096;8.246;2022-08-03T13:37:30;11.60;;;1.35;;
60714;SDS011;46564;53.096;8.246;2022-08-03T13:42:35;8.50;;;1.52;;
60714;SDS011;46564;53.096;8.246;2022-08-03T13:47:37;10.30;;;1.77;;
60714;SDS011;46564;53.096;8.246;2022-08-03T13:52:38;15.48;;;1.98;;
60714;SDS011;46564;53.096;8.246;2022-08-03T13:57:40;13.32;;;1.75;;
60714;SDS011;46564;53.096;8.246;2022-08-03T14:03:02;9.35;;;1.60;;
60714;SDS011;46564;53.096;8.246;2022-08-03T14:08:13;13.85;;;2.42;;
60714;SDS011;46564;53.096;8.246;2022-08-03T14:13:15;16.13;;;1.80;;
60714;SDS011;46564;53.096;8.246;2022-08-03T14:18:19;15.23;;;2.13;;
60714;SDS011;46564;53.096;8.246;2022-08-03T14:23:34;11.73;;;1.65;;
60714;SDS011;46564;53.096;8.246;2022-08-03T14:28:37;10.70;;;2.00;;
60714;SDS011;46564;53.096;8.246;2022-08-03T14:33:39;13.43;;;1.95;;
60714;SDS011;46564;53.096;8.246;2022-08-03T14:38:41;8.00;;;1.63;;
60714;SDS011;46564;53.096;8.246;2022-08-03T14:43:42;13.85;;;2.33;;
60714;SDS011;46564;53.096;8.246;2022-08-03T14:49:02;12.43;;;1.80;;
60714;SDS011;46564;53.096;8.246;2022-08-03T14:54:25;12.70;;;2.17;;
60714;SDS011;46564;53.096;8.246;2022-08-03T14:59:27;9.73;;;1.75;;
60714;SDS011;46564;53.096;8.246;2022-08-03T15:04:48;10.25;;;1.95;;
60714;SDS011;46564;53.096;8.246;2022-08-03T15:09:50;11.32;;;1.60;;
60714;SDS011;46564;53.096;8.246;2022-08-03T15:14:52;15.98;;;2.47;;
60714;SDS011;46564;53.096;8.246;2022-08-03T15:19:54;13.68;;;1.83;;
60714;SDS011;46564;53.096;8.246;2022-08-03T15:25:06;9.60;;;1.60;;
60714;SDS011;46564;53.096;8.246;2022-08-03T15:30:28;12.73;;;1.80;;
60714;SDS011;46564;53.096;8.246;2022-08-03T15:35:33;9.10;;;1.60;;
60714;SDS011;46564;53.096;8.246;2022-08-03T15:40:36;7.95;;;1.67;;
60714;SDS011;46564;53.096;8.246;2022-08-03T15:45:37;13.00;;;2.85;;
60714;SDS011;46564;53.096;8.246;2022-08-03T15:50:42;8.43;;;1.67;;
60714;SDS011;46564;53.096;8.246;2022-08-03T15:55:44;12.73;;;2.13;;
60714;SDS011;46564;53.096;8.246;2022-08-03T16:00:45;10.52;;;2.30;;
60714;SDS011;46564;53.096;8.246;2022-08-03T16:05:47;13.13;;;2.17;;
60714;SDS011;46564;53.096;8.246;2022-08-03T16:10:50;14.20;;;2.60;;
60714;SDS011;46564;53.096;8.246;2022-08-03T16:15:52;11.60;;;1.90;;
60714;SDS011;46564;53.096;8.246;2022-08-03T16:20:54;16.25;;;2.13;;
60714;SDS011;46564;53.096;8.246;2022-08-03T16:25:56;11.40;;;1.65;;
60714;SDS011;46564;53.096;8.246;2022-08-03T16:30:57;14.60;;;2.30;;
60714;SDS011;46564;53.096;8.246;2022-08-03T16:35:59;17.70;;;3.67;;
60714;SDS011;46564;53.096;8.246;2022-08-03T16:41:00;19.88;;;2.67;;
60714;SDS011;46564;53.096;8.246;2022-08-03T16:46:02;52.38;;;36.17;;
60714;SDS011;46564;53.096;8.246;2022-08-03T16:51:04;21.08;;;7.32;;
60714;SDS011;46564;53.096;8.246;2022-08-03T16:56:06;30.63;;;17.15;;
60714;SDS011;46564;53.096;8.246;2022-08-03T17:01:11;57.83;;;36.47;;
60714;SDS011;46564;53.096;8.246;2022-08-03T17:06:24;196.57;;;139.57;;
60714;SDS011;46564;53.096;8.246;2022-08-03T17:11:36;180.80;;;138.00;;
60714;SDS011;46564;53.096;8.246;2022-08-03T17:16:45;137.15;;;99.30;;
60714;SDS011;46564;53.096;8.246;2022-08-03T17:22:04;32.58;;;18.92;;
60714;SDS011;46564;53.096;8.246;2022-08-03T17:27:15;41.10;;;25.27;;
60714;SDS011;46564;53.096;8.246;2022-08-03T17:32:39;26.13;;;10.88;;
60714;SDS011;46564;53.096;8.246;2022-08-03T17:37:58;19.60;;;3.17;;
60714;SDS011;46564;53.096;8.246;2022-08-03T17:43:04;8.88;;;2.47;;
60714;SDS011;46564;53.096;8.246;2022-08-03T17:48:26;12.40;;;2.45;;
60714;SDS011;46564;53.096;8.246;2022-08-03T17:53:28;18.27;;;2.63;;
60714;SDS011;46564;53.096;8.246;2022-08-03T18:03:59;12.48;;;2.90;;
60714;SDS011;46564;53.096;8.246;2022-08-03T18:09:12;13.95;;;2.70;;
60714;SDS011;46564;53.096;8.246;2022-08-03T18:20:08;24.08;;;5.60;;
60714;SDS011;46564;53.096;8.246;2022-08-03T18:25:30;19.55;;;5.18;;
60714;SDS011;46564;53.096;8.246;2022-08-03T18:30:46;17.98;;;4.40;;
60714;SDS011;46564;53.096;8.246;2022-08-03T18:35:55;33.08;;;5.57;;
60714;SDS011;46564;53.096;8.246;2022-08-03T18:40:57;23.20;;;5.32;;
60714;SDS011;46564;53.096;8.246;2022-08-03T18:54:47;25.92;;;6.65;;
60714;SDS011;46564;53.096;8.246;2022-08-03T19:00:15;27.35;;;6.13;;
60714;SDS011;46564;53.096;8.246;2022-08-03T19:05:24;27.63;;;5.22;;
60714;SDS011;46564;53.096;8.246;2022-08-03T19:10:50;30.13;;;5.53;;
60714;SDS011;46564;53.096;8.246;2022-08-03T19:16:01;18.85;;;4.47;;
60714;SDS011;46564;53.096;8.246;2022-08-03T19:21:08;21.98;;;4.70;;
60714;SDS011;46564;53.096;8.246;2022-08-03T19:26:16;21.88;;;5.10;;
60714;SDS011;46564;53.096;8.246;2022-08-03T19:36:59;23.23;;;5.45;;
60714;SDS011;46564;53.096;8.246;2022-08-03T19:42:08;21.30;;;5.45;;
60714;SDS011;46564;53.096;8.246;2022-08-03T19:47:34;18.63;;;4.85;;
60714;SDS011;46564;53.096;8.246;2022-08-03T19:57:46;19.45;;;4.85;;
60714;SDS011;46564;53.096;8.246;2022-08-03T20:02:59;21.38;;;4.70;;
60714;SDS011;46564;53.096;8.246;2022-08-03T20:08:02;20.77;;;4.43;;
60714;SDS011;46564;53.096;8.246;2022-08-03T20:13:06;23.20;;;5.65;;
60714;SDS011;46564;53.096;8.246;2022-08-03T20:18:08;23.40;;;5.20;;
60714;SDS011;46564;53.096;8.246;2022-08-03T20:23:17;19.88;;;4.90;;
60714;SDS011;46564;53.096;8.246;2022-08-03T20:28:29;21.13;;;5.60;;
60714;SDS011;46564;53.096;8.246;2022-08-03T20:34:02;26.02;;;5.82;;
60714;SDS011;46564;53.096;8.246;2022-08-03T20:39:53;21.92;;;5.35;;
60714;SDS011;46564;53.096;8.246;2022-08-03T20:45:19;21.95;;;5.88;;
60714;SDS011;46564;53.096;8.246;2022-08-03T20:51:08;16.83;;;5.40;;
60714;SDS011;46564;53.096;8.246;2022-08-03T20:56:51;26.08;;;5.90;;
60714;SDS011;46564;53.096;8.246;2022-08-03T21:02:16;22.98;;;6.22;;
60714;SDS011;46564;53.096;8.246;2022-08-03T21:07:47;27.67;;;6.20;;
60714;SDS011;46564;53.096;8.246;2022-08-03T21:25:44;39.03;;;7.45;;
60714;SDS011;46564;53.096;8.246;2022-08-03T21:31:55;27.92;;;6.70;;
60714;SDS011;46564;53.096;8.246;2022-08-03T21:38:06;27.55;;;6.70;;
60714;SDS011;46564;53.096;8.246;2022-08-03T21:44:06;25.90;;;7.40;;
60714;SDS011;46564;53.096;8.246;2022-08-03T21:49:57;26.25;;;6.95;;
60714;SDS011;46564;53.096;8.246;2022-08-03T21:56:07;26.63;;;8.02;;
60714;SDS011;46564;53.096;8.246;2022-08-03T22:01:52;22.92;;;7.10;;
60714;SDS011;46564;53.096;8.246;2022-08-03T22:07:25;31.33;;;8.27;;
60714;SDS011;46564;53.096;8.246;2022-08-03T22:13:04;26.55;;;9.85;;
60714;SDS011;46564;53.096;8.246;2022-08-03T22:24:46;23.67;;;8.93;;
60714;SDS011;46564;53.096;8.246;2022-08-03T22:30:43;28.27;;;9.95;;
60714;SDS011;46564;53.096;8.246;2022-08-03T22:36:22;27.88;;;10.07;;
60714;SDS011;46564;53.096;8.246;2022-08-03T22:41:56;28.15;;;10.13;;
60714;SDS011;46564;53.096;8.246;2022-08-03T22:47:40;25.63;;;10.00;;
60714;SDS011;46564;53.096;8.246;2022-08-03T22:53:03;21.13;;;8.37;;
60714;SDS011;46564;53.096;8.246;2022-08-03T22:58:47;27.02;;;10.95;;
60714;SDS011;46564;53.096;8.246;2022-08-03T23:04:05;24.15;;;9.73;;
60714;SDS011;46564;53.096;8.246;2022-08-03T23:09:33;26.58;;;10.52;;
60714;SDS011;46564;53.096;8.246;2022-08-03T23:15:17;26.85;;;10.07;;
60714;SDS011;46564;53.096;8.246;2022-08-03T23:27:13;28.83;;;11.35;;
60714;SDS011;46564;53.096;8.246;2022-08-03T23:32:40;29.88;;;12.05;;
60714;SDS011;46564;53.096;8.246;2022-08-03T23:38:29;21.70;;;10.93;;
60714;SDS011;46564;53.096;8.246;2022-08-03T23:44:12;27.80;;;11.45;;
